sensor_id;sensor_type;location;lat;lon;timestamp;P1;durP1;ratioP1;P2;durP2;ratioP2
16824;SDS011;8529;48.108;-1.706;2024-02-26T00:01:18;5.90;;;1.88;;
16824;SDS011;8529;48.108;-1.706;2024-02-26T00:03:46;3.35;;;1.50;;
16824;SDS011;8529;48.108;-1.706;2024-02-26T00:06:13;3.65;;;2.35;;
16824;SDS011;8529;48.108;-1.706;2024-02-26T00:08:41;5.18;;;1.65;;
16824;SDS011;8529;48.108;-1.706;2024-02-26T00:11:08;6.43;;;2.00;;
16824;SDS011;8529;48.108;-1.706;2024-02-26T00:13:35;4.70;;;2.10;;
16824;SDS011;8529;48.108;-1.706;2024-02-26T00:16:02;3.47;;;1.75;;
16824;SDS011;8529;48.108;-1.706;2024-02-26T00:18:30;8.02;;;2.55;;
16824;SDS011;8529;48.108;-1.706;2024-02-26T00:20:56;5.70;;;2.53;;
16824;SDS011;8529;48.108;-1.706;2024-02-26T00:23:24;4.65;;;1.80;;
16824;SDS011;8529;48.108;-1.706;2024-02-26T00:25:52;5.30;;;1.77;;
16824;SDS011;8529;48.108;-1.706;2024-02-26T00:28:20;5.28;;;1.77;;
16824;SDS011;8529;48.108;-1.706;2024-02-26T00:30:47;3.05;;;1.77;;
16824;SDS011;8529;48.108;-1.706;2024-02-26T00:33:16;6.72;;;1.73;;
16824;SDS011;8529;48.108;-1.706;2024-02-26T00:35:43;4.25;;;1.60;;
16824;SDS011;8529;48.108;-1.706;2024-02-26T00:38:10;7.90;;;1.65;;
16824;SDS011;8529;48.108;-1.706;2024-02-26T00:40:37;6.88;;;2.20;;
16824;SDS011;8529;48.108;-1.706;2024-02-26T00:43:07;5.93;;;1.92;;
16824;SDS011;8529;48.108;-1.706;2024-02-26T00:45:34;5.97;;;2.95;;
16824;SDS011;8529;48.108;-1.706;2024-02-26T00:48:00;6.13;;;3.42;;
16824;SDS011;8529;48.108;-1.706;2024-02-26T00:50:30;8.80;;;4.55;;
16824;SDS011;8529;48.108;-1.706;2024-02-26T00:52:57;10.18;;;4.70;;
16824;SDS011;8529;48.108;-1.706;2024-02-26T00:55:24;9.88;;;4.20;;
16824;SDS011;8529;48.108;-1.706;2024-02-26T00:57:51;6.07;;;2.85;;
16824;SDS011;8529;48.108;-1.706;2024-02-26T01:00:19;8.93;;;5.32;;
16824;SDS011;8529;48.108;-1.706;2024-02-26T01:02:46;3.97;;;2.70;;
16824;SDS011;8529;48.108;-1.706;2024-02-26T01:05:13;6.72;;;3.22;;
16824;SDS011;8529;48.108;-1.706;2024-02-26T01:07:41;7.22;;;3.35;;
16824;SDS011;8529;48.108;-1.706;2024-02-26T01:10:08;6.50;;;2.38;;
16824;SDS011;8529;48.108;-1.706;2024-02-26T01:12:35;4.13;;;1.95;;
16824;SDS011;8529;48.108;-1.706;2024-02-26T01:15:03;5.53;;;2.40;;
16824;SDS011;8529;48.108;-1.706;2024-02-26T01:17:32;5.10;;;3.20;;
16824;SDS011;8529;48.108;-1.706;2024-02-26T01:19:59;4.93;;;2.85;;
16824;SDS011;8529;48.108;-1.706;2024-02-26T01:22:26;3.97;;;2.22;;
16824;SDS011;8529;48.108;-1.706;2024-02-26T01:24:53;9.70;;;4.63;;
16824;SDS011;8529;48.108;-1.706;2024-02-26T01:27:21;6.25;;;2.53;;
16824;SDS011;8529;48.108;-1.706;2024-02-26T01:29:51;8.18;;;2.53;;
16824;SDS011;8529;48.108;-1.706;2024-02-26T01:32:18;6.75;;;2.70;;
16824;SDS011;8529;48.108;-1.706;2024-02-26T01:34:46;5.50;;;2.55;;
16824;SDS011;8529;48.108;-1.706;2024-02-26T01:37:13;4.95;;;2.05;;
16824;SDS011;8529;48.108;-1.706;2024-02-26T01:39:40;4.50;;;2.30;;
16824;SDS011;8529;48.108;-1.706;2024-02-26T01:42:07;6.22;;;2.50;;
16824;SDS011;8529;48.108;-1.706;2024-02-26T01:44:34;4.03;;;2.25;;
16824;SDS011;8529;48.108;-1.706;2024-02-26T01:47:03;3.78;;;2.08;;
16824;SDS011;8529;48.108;-1.706;2024-02-26T01:49:31;6.65;;;2.50;;
16824;SDS011;8529;48.108;-1.706;2024-02-26T01:52:00;8.82;;;2.65;;
16824;SDS011;8529;48.108;-1.706;2024-02-26T01:54:27;8.23;;;2.80;;
16824;SDS011;8529;48.108;-1.706;2024-02-26T01:56:55;5.13;;;2.60;;
16824;SDS011;8529;48.108;-1.706;2024-02-26T01:59:23;4.68;;;2.30;;
16824;SDS011;8529;48.108;-1.706;2024-02-26T02:01:52;5.45;;;2.40;;
16824;SDS011;8529;48.108;-1.706;2024-02-26T02:04:21;7.07;;;2.88;;
16824;SDS011;8529;48.108;-1.706;2024-02-26T02:06:50;6.57;;;2.65;;
16824;SDS011;8529;48.108;-1.706;2024-02-26T02:09:19;9.13;;;2.97;;
16824;SDS011;8529;48.108;-1.706;2024-02-26T02:11:48;4.18;;;2.72;;
16824;SDS011;8529;48.108;-1.706;2024-02-26T02:14:15;9.38;;;5.03;;
16824;SDS011;8529;48.108;-1.706;2024-02-26T02:16:42;12.98;;;4.68;;
16824;SDS011;8529;48.108;-1.706;2024-02-26T02:19:09;9.00;;;4.22;;
16824;SDS011;8529;48.108;-1.706;2024-02-26T02:21:38;10.55;;;3.90;;
16824;SDS011;8529;48.108;-1.706;2024-02-26T02:24:05;6.07;;;3.45;;
16824;SDS011;8529;48.108;-1.706;2024-02-26T02:26:32;11.55;;;5.70;;
16824;SDS011;8529;48.108;-1.706;2024-02-26T02:28:59;12.38;;;7.20;;
16824;SDS011;8529;48.108;-1.706;2024-02-26T02:31:27;9.23;;;5.10;;
16824;SDS011;8529;48.108;-1.706;2024-02-26T02:33:53;11.35;;;5.80;;
16824;SDS011;8529;48.108;-1.706;2024-02-26T02:36:20;8.05;;;5.30;;
16824;SDS011;8529;48.108;-1.706;2024-02-26T02:38:51;7.40;;;4.78;;
16824;SDS011;8529;48.108;-1.706;2024-02-26T02:41:18;6.97;;;3.00;;
16824;SDS011;8529;48.108;-1.706;2024-02-26T02:43:46;6.35;;;3.63;;
16824;SDS011;8529;48.108;-1.706;2024-02-26T02:46:13;9.02;;;4.18;;
16824;SDS011;8529;48.108;-1.706;2024-02-26T02:48:41;8.63;;;2.97;;
16824;SDS011;8529;48.108;-1.706;2024-02-26T02:51:08;5.05;;;3.50;;
16824;SDS011;8529;48.108;-1.706;2024-02-26T02:53:35;6.15;;;3.55;;
16824;SDS011;8529;48.108;-1.706;2024-02-26T02:56:04;6.25;;;3.55;;
16824;SDS011;8529;48.108;-1.706;2024-02-26T02:58:31;5.20;;;3.40;;
16824;SDS011;8529;48.108;-1.706;2024-02-26T03:00:58;7.47;;;4.70;;
16824;SDS011;8529;48.108;-1.706;2024-02-26T03:03:25;5.72;;;3.60;;
16824;SDS011;8529;48.108;-1.706;2024-02-26T03:05:53;6.38;;;3.33;;
16824;SDS011;8529;48.108;-1.706;2024-02-26T03:08:21;6.50;;;3.40;;
16824;SDS011;8529;48.108;-1.706;2024-02-26T03:10:49;7.90;;;3.97;;
16824;SDS011;8529;48.108;-1.706;2024-02-26T03:13:17;4.93;;;3.67;;
16824;SDS011;8529;48.108;-1.706;2024-02-26T03:15:44;6.35;;;3.35;;
16824;SDS011;8529;48.108;-1.706;2024-02-26T03:18:11;11.10;;;4.05;;
16824;SDS011;8529;48.108;-1.706;2024-02-26T03:20:38;5.63;;;3.03;;
16824;SDS011;8529;48.108;-1.706;2024-02-26T03:23:05;6.05;;;3.90;;
16824;SDS011;8529;48.108;-1.706;2024-02-26T03:25:34;5.88;;;3.55;;
16824;SDS011;8529;48.108;-1.706;2024-02-26T03:28:02;8.13;;;3.22;;
16824;SDS011;8529;48.108;-1.706;2024-02-26T03:30:30;7.38;;;4.45;;
16824;SDS011;8529;48.108;-1.706;2024-02-26T03:32:57;7.40;;;4.55;;
16824;SDS011;8529;48.108;-1.706;2024-02-26T03:35:24;8.00;;;4.15;;
16824;SDS011;8529;48.108;-1.706;2024-02-26T03:37:51;5.32;;;3.90;;
16824;SDS011;8529;48.108;-1.706;2024-02-26T03:40:18;6.03;;;3.97;;
16824;SDS011;8529;48.108;-1.706;2024-02-26T03:42:45;7.82;;;3.80;;
16824;SDS011;8529;48.108;-1.706;2024-02-26T03:45:13;6.22;;;3.50;;
16824;SDS011;8529;48.108;-1.706;2024-02-26T03:47:41;5.65;;;4.10;;
16824;SDS011;8529;48.108;-1.706;2024-02-26T03:50:08;4.95;;;3.40;;
16824;SDS011;8529;48.108;-1.706;2024-02-26T03:52:35;5.43;;;3.47;;
16824;SDS011;8529;48.108;-1.706;2024-02-26T03:55:02;5.13;;;3.35;;
16824;SDS011;8529;48.108;-1.706;2024-02-26T03:57:29;5.22;;;3.45;;
16824;SDS011;8529;48.108;-1.706;2024-02-26T03:59:57;5.50;;;3.50;;
16824;SDS011;8529;48.108;-1.706;2024-02-26T04:02:24;4.30;;;3.35;;
16824;SDS011;8529;48.108;-1.706;2024-02-26T04:04:53;5.60;;;3.30;;
16824;SDS011;8529;48.108;-1.706;2024-02-26T04:07:20;5.07;;;3.30;;
16824;SDS011;8529;48.108;-1.706;2024-02-26T04:09:47;4.97;;;3.10;;
16824;SDS011;8529;48.108;-1.706;2024-02-26T04:12:14;4.13;;;2.88;;
16824;SDS011;8529;48.108;-1.706;2024-02-26T04:14:41;5.55;;;3.13;;
16824;SDS011;8529;48.108;-1.706;2024-02-26T04:17:08;6.32;;;2.80;;
16824;SDS011;8529;48.108;-1.706;2024-02-26T04:19:36;5.78;;;3.40;;
16824;SDS011;8529;48.108;-1.706;2024-02-26T04:22:04;5.95;;;2.75;;
16824;SDS011;8529;48.108;-1.706;2024-02-26T04:24:31;4.78;;;2.53;;
16824;SDS011;8529;48.108;-1.706;2024-02-26T04:26:58;5.60;;;2.72;;
16824;SDS011;8529;48.108;-1.706;2024-02-26T04:29:25;3.72;;;2.45;;
16824;SDS011;8529;48.108;-1.706;2024-02-26T04:31:52;4.13;;;2.28;;
16824;SDS011;8529;48.108;-1.706;2024-02-26T04:34:19;4.28;;;2.20;;
16824;SDS011;8529;48.108;-1.706;2024-02-26T04:36:46;4.13;;;2.17;;
16824;SDS011;8529;48.108;-1.706;2024-02-26T04:39:14;2.08;;;1.65;;
16824;SDS011;8529;48.108;-1.706;2024-02-26T04:41:41;2.13;;;1.52;;
16824;SDS011;8529;48.108;-1.706;2024-02-26T04:44:08;1.55;;;1.33;;
16824;SDS011;8529;48.108;-1.706;2024-02-26T04:46:35;4.15;;;1.75;;
16824;SDS011;8529;48.108;-1.706;2024-02-26T04:49:01;1.40;;;1.30;;
16824;SDS011;8529;48.108;-1.706;2024-02-26T04:51:29;2.95;;;1.30;;
16824;SDS011;8529;48.108;-1.706;2024-02-26T04:53:55;2.28;;;1.92;;
16824;SDS011;8529;48.108;-1.706;2024-02-26T04:56:24;2.85;;;1.40;;
16824;SDS011;8529;48.108;-1.706;2024-02-26T04:58:51;1.98;;;1.55;;
16824;SDS011;8529;48.108;-1.706;2024-02-26T05:01:18;1.75;;;1.38;;
16824;SDS011;8529;48.108;-1.706;2024-02-26T05:03:45;2.65;;;1.33;;
16824;SDS011;8529;48.108;-1.706;2024-02-26T05:06:12;1.45;;;1.20;;
16824;SDS011;8529;48.108;-1.706;2024-02-26T05:08:40;1.67;;;1.00;;
16824;SDS011;8529;48.108;-1.706;2024-02-26T05:11:09;1.88;;;1.00;;
16824;SDS011;8529;48.108;-1.706;2024-02-26T05:13:37;0.98;;;0.60;;
16824;SDS011;8529;48.108;-1.706;2024-02-26T05:16:04;0.75;;;0.50;;
16824;SDS011;8529;48.108;-1.706;2024-02-26T05:18:31;1.58;;;0.52;;
16824;SDS011;8529;48.108;-1.706;2024-02-26T05:20:58;1.98;;;0.63;;
16824;SDS011;8529;48.108;-1.706;2024-02-26T05:23:26;1.30;;;0.60;;
16824;SDS011;8529;48.108;-1.706;2024-02-26T05:25:53;1.38;;;0.43;;
16824;SDS011;8529;48.108;-1.706;2024-02-26T05:28:20;1.70;;;0.60;;
16824;SDS011;8529;48.108;-1.706;2024-02-26T05:30:48;1.15;;;0.50;;
16824;SDS011;8529;48.108;-1.706;2024-02-26T05:33:15;1.45;;;0.50;;
16824;SDS011;8529;48.108;-1.706;2024-02-26T05:35:42;1.55;;;0.50;;
16824;SDS011;8529;48.108;-1.706;2024-02-26T05:38:09;0.68;;;0.45;;
16824;SDS011;8529;48.108;-1.706;2024-02-26T05:40:36;0.60;;;0.60;;
16824;SDS011;8529;48.108;-1.706;2024-02-26T05:43:03;1.83;;;0.63;;
16824;SDS011;8529;48.108;-1.706;2024-02-26T05:45:31;0.80;;;0.70;;
16824;SDS011;8529;48.108;-1.706;2024-02-26T05:47:59;1.52;;;0.80;;
16824;SDS011;8529;48.108;-1.706;2024-02-26T05:50:26;1.63;;;0.80;;
16824;SDS011;8529;48.108;-1.706;2024-02-26T05:52:53;1.42;;;0.90;;
16824;SDS011;8529;48.108;-1.706;2024-02-26T05:55:19;1.25;;;0.90;;
16824;SDS011;8529;48.108;-1.706;2024-02-26T05:57:46;0.90;;;0.77;;
16824;SDS011;8529;48.108;-1.706;2024-02-26T06:00:14;1.35;;;1.02;;
16824;SDS011;8529;48.108;-1.706;2024-02-26T06:02:41;1.10;;;0.95;;
16824;SDS011;8529;48.108;-1.706;2024-02-26T06:05:10;1.10;;;1.00;;
16824;SDS011;8529;48.108;-1.706;2024-02-26T06:07:37;0.90;;;0.90;;
16824;SDS011;8529;48.108;-1.706;2024-02-26T06:10:04;1.05;;;0.80;;
16824;SDS011;8529;48.108;-1.706;2024-02-26T06:12:34;0.70;;;0.70;;
16824;SDS011;8529;48.108;-1.706;2024-02-26T06:15:01;0.57;;;0.57;;
16824;SDS011;8529;48.108;-1.706;2024-02-26T06:17:29;0.70;;;0.50;;
16824;SDS011;8529;48.108;-1.706;2024-02-26T06:19:56;0.70;;;0.60;;
16824;SDS011;8529;48.108;-1.706;2024-02-26T06:22:26;0.50;;;0.47;;
16824;SDS011;8529;48.108;-1.706;2024-02-26T06:24:53;0.65;;;0.45;;
16824;SDS011;8529;48.108;-1.706;2024-02-26T06:27:20;0.98;;;0.68;;
16824;SDS011;8529;48.108;-1.706;2024-02-26T06:29:47;0.55;;;0.50;;
16824;SDS011;8529;48.108;-1.706;2024-02-26T06:32:14;1.10;;;0.68;;
16824;SDS011;8529;48.108;-1.706;2024-02-26T06:34:41;1.83;;;0.40;;
16824;SDS011;8529;48.108;-1.706;2024-02-26T06:37:08;0.60;;;0.40;;
16824;SDS011;8529;48.108;-1.706;2024-02-26T06:39:37;0.73;;;0.35;;
16824;SDS011;8529;48.108;-1.706;2024-02-26T06:42:04;3.10;;;0.50;;
16824;SDS011;8529;48.108;-1.706;2024-02-26T06:44:31;2.30;;;0.60;;
16824;SDS011;8529;48.108;-1.706;2024-02-26T06:46:59;2.00;;;0.50;;
16824;SDS011;8529;48.108;-1.706;2024-02-26T06:49:26;2.35;;;0.80;;
16824;SDS011;8529;48.108;-1.706;2024-02-26T06:51:53;0.73;;;0.55;;
16824;SDS011;8529;48.108;-1.706;2024-02-26T06:54:20;3.03;;;0.70;;
16824;SDS011;8529;48.108;-1.706;2024-02-26T06:56:48;1.13;;;0.80;;
16824;SDS011;8529;48.108;-1.706;2024-02-26T06:59:16;1.13;;;0.60;;
16824;SDS011;8529;48.108;-1.706;2024-02-26T07:01:43;1.58;;;0.73;;
16824;SDS011;8529;48.108;-1.706;2024-02-26T07:04:10;3.33;;;0.70;;
16824;SDS011;8529;48.108;-1.706;2024-02-26T07:06:37;2.70;;;0.60;;
16824;SDS011;8529;48.108;-1.706;2024-02-26T07:09:04;3.38;;;0.75;;
16824;SDS011;8529;48.108;-1.706;2024-02-26T07:11:31;2.80;;;1.00;;
16824;SDS011;8529;48.108;-1.706;2024-02-26T07:13:59;1.85;;;1.00;;
16824;SDS011;8529;48.108;-1.706;2024-02-26T07:16:26;2.53;;;1.20;;
16824;SDS011;8529;48.108;-1.706;2024-02-26T07:18:53;2.38;;;0.88;;
16824;SDS011;8529;48.108;-1.706;2024-02-26T07:21:21;2.85;;;0.80;;
16824;SDS011;8529;48.108;-1.706;2024-02-26T07:23:48;3.38;;;0.80;;
16824;SDS011;8529;48.108;-1.706;2024-02-26T07:26:14;2.63;;;1.00;;
16824;SDS011;8529;48.108;-1.706;2024-02-26T07:28:43;3.17;;;0.90;;
16824;SDS011;8529;48.108;-1.706;2024-02-26T07:31:11;1.17;;;0.77;;
16824;SDS011;8529;48.108;-1.706;2024-02-26T07:33:38;2.30;;;0.80;;
16824;SDS011;8529;48.108;-1.706;2024-02-26T07:36:05;1.13;;;0.50;;
16824;SDS011;8529;48.108;-1.706;2024-02-26T07:38:32;2.70;;;0.88;;
16824;SDS011;8529;48.108;-1.706;2024-02-26T07:41:01;2.20;;;0.68;;
16824;SDS011;8529;48.108;-1.706;2024-02-26T07:43:28;1.35;;;0.73;;
16824;SDS011;8529;48.108;-1.706;2024-02-26T07:45:54;2.38;;;0.68;;
16824;SDS011;8529;48.108;-1.706;2024-02-26T07:48:23;1.63;;;0.47;;
16824;SDS011;8529;48.108;-1.706;2024-02-26T07:50:49;1.42;;;0.90;;
16824;SDS011;8529;48.108;-1.706;2024-02-26T07:53:17;2.28;;;1.10;;
16824;SDS011;8529;48.108;-1.706;2024-02-26T07:55:44;2.53;;;0.65;;
16824;SDS011;8529;48.108;-1.706;2024-02-26T07:58:11;2.58;;;0.65;;
16824;SDS011;8529;48.108;-1.706;2024-02-26T08:00:38;1.65;;;0.60;;
16824;SDS011;8529;48.108;-1.706;2024-02-26T08:03:05;1.92;;;0.73;;
16824;SDS011;8529;48.108;-1.706;2024-02-26T08:05:34;1.10;;;0.50;;
16824;SDS011;8529;48.108;-1.706;2024-02-26T08:08:05;5.43;;;0.80;;
16824;SDS011;8529;48.108;-1.706;2024-02-26T08:10:32;1.50;;;0.60;;
16824;SDS011;8529;48.108;-1.706;2024-02-26T08:12:59;1.98;;;0.60;;
16824;SDS011;8529;48.108;-1.706;2024-02-26T08:15:30;3.60;;;0.50;;
16824;SDS011;8529;48.108;-1.706;2024-02-26T08:17:57;1.70;;;0.70;;
16824;SDS011;8529;48.108;-1.706;2024-02-26T08:20:27;2.05;;;0.73;;
16824;SDS011;8529;48.108;-1.706;2024-02-26T08:22:55;2.72;;;0.60;;
16824;SDS011;8529;48.108;-1.706;2024-02-26T08:25:22;3.42;;;0.60;;
16824;SDS011;8529;48.108;-1.706;2024-02-26T08:27:48;2.50;;;0.60;;
16824;SDS011;8529;48.108;-1.706;2024-02-26T08:30:16;2.17;;;0.68;;
16824;SDS011;8529;48.108;-1.706;2024-02-26T08:32:43;2.53;;;0.68;;
16824;SDS011;8529;48.108;-1.706;2024-02-26T08:35:10;4.45;;;0.82;;
16824;SDS011;8529;48.108;-1.706;2024-02-26T08:37:37;2.72;;;1.08;;
16824;SDS011;8529;48.108;-1.706;2024-02-26T08:40:07;2.95;;;0.68;;
16824;SDS011;8529;48.108;-1.706;2024-02-26T08:42:34;1.67;;;0.70;;
16824;SDS011;8529;48.108;-1.706;2024-02-26T08:45:01;2.30;;;0.70;;
16824;SDS011;8529;48.108;-1.706;2024-02-26T08:47:28;2.15;;;0.80;;
16824;SDS011;8529;48.108;-1.706;2024-02-26T08:49:56;4.13;;;0.93;;
16824;SDS011;8529;48.108;-1.706;2024-02-26T08:52:23;3.53;;;0.80;;
16824;SDS011;8529;48.108;-1.706;2024-02-26T08:54:50;6.45;;;0.98;;
16824;SDS011;8529;48.108;-1.706;2024-02-26T08:57:18;2.65;;;0.80;;
16824;SDS011;8529;48.108;-1.706;2024-02-26T08:59:46;2.00;;;0.80;;
16824;SDS011;8529;48.108;-1.706;2024-02-26T09:02:13;2.13;;;0.90;;
16824;SDS011;8529;48.108;-1.706;2024-02-26T09:04:40;2.47;;;0.80;;
16824;SDS011;8529;48.108;-1.706;2024-02-26T09:07:07;3.67;;;0.80;;
16824;SDS011;8529;48.108;-1.706;2024-02-26T09:09:34;1.85;;;0.77;;
16824;SDS011;8529;48.108;-1.706;2024-02-26T09:12:02;3.22;;;0.70;;
16824;SDS011;8529;48.108;-1.706;2024-02-26T09:14:30;3.13;;;1.08;;
16824;SDS011;8529;48.108;-1.706;2024-02-26T09:16:57;4.43;;;0.90;;
16824;SDS011;8529;48.108;-1.706;2024-02-26T09:19:25;3.15;;;0.77;;
16824;SDS011;8529;48.108;-1.706;2024-02-26T09:21:52;2.75;;;0.60;;
16824;SDS011;8529;48.108;-1.706;2024-02-26T09:24:22;3.60;;;0.77;;
16824;SDS011;8529;48.108;-1.706;2024-02-26T09:26:49;2.00;;;0.60;;
16824;SDS011;8529;48.108;-1.706;2024-02-26T09:29:16;1.73;;;0.90;;
16824;SDS011;8529;48.108;-1.706;2024-02-26T09:31:45;2.05;;;0.70;;
16824;SDS011;8529;48.108;-1.706;2024-02-26T09:34:13;3.78;;;0.75;;
16824;SDS011;8529;48.108;-1.706;2024-02-26T09:36:40;2.45;;;0.98;;
16824;SDS011;8529;48.108;-1.706;2024-02-26T09:39:07;2.83;;;1.02;;
16824;SDS011;8529;48.108;-1.706;2024-02-26T09:41:36;2.80;;;0.70;;
16824;SDS011;8529;48.108;-1.706;2024-02-26T09:44:04;2.55;;;1.05;;
16824;SDS011;8529;48.108;-1.706;2024-02-26T09:46:32;3.53;;;0.88;;
16824;SDS011;8529;48.108;-1.706;2024-02-26T09:49:01;2.95;;;0.57;;
16824;SDS011;8529;48.108;-1.706;2024-02-26T09:51:28;1.83;;;0.60;;
16824;SDS011;8529;48.108;-1.706;2024-02-26T09:53:57;1.55;;;0.68;;
16824;SDS011;8529;48.108;-1.706;2024-02-26T09:56:27;2.90;;;0.77;;
16824;SDS011;8529;48.108;-1.706;2024-02-26T09:58:54;1.23;;;0.40;;
16824;SDS011;8529;48.108;-1.706;2024-02-26T10:01:22;0.93;;;0.45;;
16824;SDS011;8529;48.108;-1.706;2024-02-26T10:03:51;0.90;;;0.70;;
16824;SDS011;8529;48.108;-1.706;2024-02-26T10:06:20;1.33;;;0.60;;
16824;SDS011;8529;48.108;-1.706;2024-02-26T10:08:47;3.05;;;0.50;;
16824;SDS011;8529;48.108;-1.706;2024-02-26T10:11:15;1.77;;;0.93;;
16824;SDS011;8529;48.108;-1.706;2024-02-26T10:13:43;2.08;;;0.60;;
16824;SDS011;8529;48.108;-1.706;2024-02-26T10:16:09;1.50;;;0.60;;
16824;SDS011;8529;48.108;-1.706;2024-02-26T10:18:46;2.45;;;0.80;;
16824;SDS011;8529;48.108;-1.706;2024-02-26T10:21:14;3.08;;;0.82;;
16824;SDS011;8529;48.108;-1.706;2024-02-26T10:23:44;2.67;;;0.50;;
16824;SDS011;8529;48.108;-1.706;2024-02-26T10:26:12;1.63;;;0.77;;
16824;SDS011;8529;48.108;-1.706;2024-02-26T10:28:40;0.80;;;0.40;;
16824;SDS011;8529;48.108;-1.706;2024-02-26T10:31:07;2.40;;;0.70;;
16824;SDS011;8529;48.108;-1.706;2024-02-26T10:33:35;3.17;;;0.60;;
16824;SDS011;8529;48.108;-1.706;2024-02-26T10:36:03;4.70;;;1.25;;
16824;SDS011;8529;48.108;-1.706;2024-02-26T10:38:31;6.97;;;1.27;;
16824;SDS011;8529;48.108;-1.706;2024-02-26T10:41:00;3.08;;;0.88;;
16824;SDS011;8529;48.108;-1.706;2024-02-26T10:43:28;3.10;;;0.75;;
16824;SDS011;8529;48.108;-1.706;2024-02-26T10:45:55;1.38;;;0.73;;
16824;SDS011;8529;48.108;-1.706;2024-02-26T10:48:22;1.90;;;0.55;;
16824;SDS011;8529;48.108;-1.706;2024-02-26T10:50:49;1.88;;;0.55;;
16824;SDS011;8529;48.108;-1.706;2024-02-26T10:53:19;1.48;;;0.60;;
16824;SDS011;8529;48.108;-1.706;2024-02-26T10:55:48;5.85;;;1.23;;
16824;SDS011;8529;48.108;-1.706;2024-02-26T10:58:19;3.03;;;1.10;;
16824;SDS011;8529;48.108;-1.706;2024-02-26T11:00:47;1.58;;;0.65;;
16824;SDS011;8529;48.108;-1.706;2024-02-26T11:03:16;1.83;;;0.75;;
16824;SDS011;8529;48.108;-1.706;2024-02-26T11:05:45;2.20;;;0.70;;
16824;SDS011;8529;48.108;-1.706;2024-02-26T11:08:13;1.70;;;0.77;;
16824;SDS011;8529;48.108;-1.706;2024-02-26T11:10:41;1.60;;;0.60;;
16824;SDS011;8529;48.108;-1.706;2024-02-26T11:13:09;0.88;;;0.50;;
16824;SDS011;8529;48.108;-1.706;2024-02-26T11:15:41;2.72;;;0.65;;
16824;SDS011;8529;48.108;-1.706;2024-02-26T11:18:09;2.22;;;0.80;;
16824;SDS011;8529;48.108;-1.706;2024-02-26T11:20:38;1.95;;;0.60;;
16824;SDS011;8529;48.108;-1.706;2024-02-26T11:23:07;0.88;;;0.50;;
16824;SDS011;8529;48.108;-1.706;2024-02-26T11:25:34;1.70;;;0.82;;
16824;SDS011;8529;48.108;-1.706;2024-02-26T11:28:05;2.13;;;0.70;;
16824;SDS011;8529;48.108;-1.706;2024-02-26T11:30:44;3.63;;;0.82;;
16824;SDS011;8529;48.108;-1.706;2024-02-26T11:33:14;2.42;;;0.60;;
16824;SDS011;8529;48.108;-1.706;2024-02-26T11:35:42;3.28;;;0.75;;
16824;SDS011;8529;48.108;-1.706;2024-02-26T11:38:09;3.35;;;1.10;;
16824;SDS011;8529;48.108;-1.706;2024-02-26T11:40:45;2.05;;;1.00;;
16824;SDS011;8529;48.108;-1.706;2024-02-26T11:43:13;3.90;;;0.82;;
16824;SDS011;8529;48.108;-1.706;2024-02-26T11:45:51;2.08;;;0.80;;
16824;SDS011;8529;48.108;-1.706;2024-02-26T11:48:20;2.25;;;1.55;;
16824;SDS011;8529;48.108;-1.706;2024-02-26T11:50:48;2.47;;;1.10;;
16824;SDS011;8529;48.108;-1.706;2024-02-26T11:53:25;3.78;;;1.23;;
16824;SDS011;8529;48.108;-1.706;2024-02-26T11:56:12;2.83;;;1.10;;
16824;SDS011;8529;48.108;-1.706;2024-02-26T11:58:51;2.35;;;0.90;;
16824;SDS011;8529;48.108;-1.706;2024-02-26T12:01:40;3.30;;;1.27;;
16824;SDS011;8529;48.108;-1.706;2024-02-26T12:04:11;3.60;;;1.65;;
16824;SDS011;8529;48.108;-1.706;2024-02-26T12:06:41;4.63;;;1.35;;
16824;SDS011;8529;48.108;-1.706;2024-02-26T12:09:09;4.55;;;1.50;;
16824;SDS011;8529;48.108;-1.706;2024-02-26T12:11:38;3.30;;;1.20;;
16824;SDS011;8529;48.108;-1.706;2024-02-26T12:14:05;3.38;;;1.00;;
16824;SDS011;8529;48.108;-1.706;2024-02-26T12:16:36;5.40;;;1.40;;
16824;SDS011;8529;48.108;-1.706;2024-02-26T12:19:05;4.38;;;1.20;;
16824;SDS011;8529;48.108;-1.706;2024-02-26T12:21:33;4.38;;;1.08;;
16824;SDS011;8529;48.108;-1.706;2024-02-26T12:24:09;5.80;;;1.50;;
16824;SDS011;8529;48.108;-1.706;2024-02-26T12:26:37;2.92;;;1.30;;
16824;SDS011;8529;48.108;-1.706;2024-02-26T12:29:04;1.65;;;1.10;;
16824;SDS011;8529;48.108;-1.706;2024-02-26T12:31:31;5.07;;;1.50;;
16824;SDS011;8529;48.108;-1.706;2024-02-26T12:33:58;7.32;;;2.40;;
16824;SDS011;8529;48.108;-1.706;2024-02-26T12:36:27;8.75;;;3.28;;
16824;SDS011;8529;48.108;-1.706;2024-02-26T12:38:54;6.40;;;1.60;;
16824;SDS011;8529;48.108;-1.706;2024-02-26T12:41:22;5.57;;;1.67;;
16824;SDS011;8529;48.108;-1.706;2024-02-26T12:43:49;7.25;;;1.90;;
16824;SDS011;8529;48.108;-1.706;2024-02-26T12:46:16;5.03;;;1.88;;
16824;SDS011;8529;48.108;-1.706;2024-02-26T12:48:43;6.55;;;1.63;;
16824;SDS011;8529;48.108;-1.706;2024-02-26T12:51:11;8.70;;;2.55;;
16824;SDS011;8529;48.108;-1.706;2024-02-26T12:53:40;7.93;;;2.25;;
16824;SDS011;8529;48.108;-1.706;2024-02-26T12:56:08;6.88;;;1.80;;
16824;SDS011;8529;48.108;-1.706;2024-02-26T12:58:37;8.57;;;1.92;;
16824;SDS011;8529;48.108;-1.706;2024-02-26T13:01:05;4.20;;;1.75;;
16824;SDS011;8529;48.108;-1.706;2024-02-26T13:03:34;7.22;;;1.92;;
16824;SDS011;8529;48.108;-1.706;2024-02-26T13:06:02;8.40;;;1.80;;
16824;SDS011;8529;48.108;-1.706;2024-02-26T13:08:31;4.90;;;1.48;;
16824;SDS011;8529;48.108;-1.706;2024-02-26T13:11:00;9.38;;;1.80;;
16824;SDS011;8529;48.108;-1.706;2024-02-26T13:13:27;4.53;;;1.88;;
16824;SDS011;8529;48.108;-1.706;2024-02-26T13:16:00;9.73;;;2.22;;
16824;SDS011;8529;48.108;-1.706;2024-02-26T13:18:29;6.97;;;2.38;;
16824;SDS011;8529;48.108;-1.706;2024-02-26T13:21:06;4.90;;;2.10;;
16824;SDS011;8529;48.108;-1.706;2024-02-26T13:23:34;6.97;;;1.80;;
16824;SDS011;8529;48.108;-1.706;2024-02-26T13:26:02;7.35;;;1.67;;
16824;SDS011;8529;48.108;-1.706;2024-02-26T13:28:29;4.80;;;1.45;;
16824;SDS011;8529;48.108;-1.706;2024-02-26T13:30:57;3.50;;;1.30;;
16824;SDS011;8529;48.108;-1.706;2024-02-26T13:33:25;10.13;;;1.55;;
16824;SDS011;8529;48.108;-1.706;2024-02-26T13:35:52;3.47;;;1.40;;
16824;SDS011;8529;48.108;-1.706;2024-02-26T13:38:20;5.72;;;1.70;;
16824;SDS011;8529;48.108;-1.706;2024-02-26T13:40:47;5.30;;;1.95;;
16824;SDS011;8529;48.108;-1.706;2024-02-26T13:43:16;4.15;;;1.52;;
16824;SDS011;8529;48.108;-1.706;2024-02-26T13:45:43;2.83;;;1.38;;
16824;SDS011;8529;48.108;-1.706;2024-02-26T13:48:10;4.65;;;1.40;;
16824;SDS011;8529;48.108;-1.706;2024-02-26T13:50:38;8.98;;;1.83;;
16824;SDS011;8529;48.108;-1.706;2024-02-26T13:53:05;4.35;;;1.58;;
16824;SDS011;8529;48.108;-1.706;2024-02-26T13:55:32;4.55;;;1.35;;
16824;SDS011;8529;48.108;-1.706;2024-02-26T13:58:00;6.93;;;1.70;;
16824;SDS011;8529;48.108;-1.706;2024-02-26T14:00:28;6.18;;;1.55;;
16824;SDS011;8529;48.108;-1.706;2024-02-26T14:02:57;6.00;;;1.45;;
16824;SDS011;8529;48.108;-1.706;2024-02-26T14:05:24;4.93;;;1.80;;
16824;SDS011;8529;48.108;-1.706;2024-02-26T14:07:52;3.25;;;1.77;;
16824;SDS011;8529;48.108;-1.706;2024-02-26T14:10:19;3.60;;;1.38;;
16824;SDS011;8529;48.108;-1.706;2024-02-26T14:12:47;3.83;;;1.48;;
16824;SDS011;8529;48.108;-1.706;2024-02-26T14:15:14;8.77;;;1.63;;
16824;SDS011;8529;48.108;-1.706;2024-02-26T14:17:42;3.45;;;1.63;;
16824;SDS011;8529;48.108;-1.706;2024-02-26T14:20:11;5.63;;;1.60;;
16824;SDS011;8529;48.108;-1.706;2024-02-26T14:22:38;5.32;;;1.88;;
16824;SDS011;8529;48.108;-1.706;2024-02-26T14:25:04;6.47;;;1.95;;
16824;SDS011;8529;48.108;-1.706;2024-02-26T14:27:34;4.38;;;1.70;;
16824;SDS011;8529;48.108;-1.706;2024-02-26T14:30:01;7.07;;;2.05;;
16824;SDS011;8529;48.108;-1.706;2024-02-26T14:32:28;4.45;;;1.25;;
16824;SDS011;8529;48.108;-1.706;2024-02-26T14:34:57;6.18;;;1.60;;
16824;SDS011;8529;48.108;-1.706;2024-02-26T14:37:24;5.40;;;1.67;;
16824;SDS011;8529;48.108;-1.706;2024-02-26T14:39:51;10.45;;;2.00;;
16824;SDS011;8529;48.108;-1.706;2024-02-26T14:42:18;6.15;;;1.77;;
16824;SDS011;8529;48.108;-1.706;2024-02-26T14:44:46;4.00;;;1.58;;
16824;SDS011;8529;48.108;-1.706;2024-02-26T14:47:13;7.53;;;2.00;;
16824;SDS011;8529;48.108;-1.706;2024-02-26T14:49:40;3.92;;;2.20;;
16824;SDS011;8529;48.108;-1.706;2024-02-26T14:52:09;5.82;;;2.20;;